• Join FlightAware (Why Join?)
  • Login
  • US Flag 
07:49PM EST


 

Airport Tracker/Info


-or-


 

Live Flight TrackerFlight Track Log ✈ DAL1981 ✈ 17-Jun-2013 ✈ KSMF - KMSP

Flight Track Log - Related Links

Times and Time Zones

All times are in EDT time to prevent confusion due to time zone crossing. See the DAL1981 flight status page for this flight to view local times or setup timezone preferences in your user account.

Time Position Orientation Groundspeed Altitude Reporting Facility
EDT Latitude Longitude Course Direction KTS MPH feet Rate Location/Type
03:50PM 38.6667 -121.5833 78° East 148 170 1,100  Level Northern Cal TRACON
03:51PM 38.6500 -121.5167 108° East 207 238 2,000 1,380 Climbing Northern Cal TRACON
03:52PM 38.6333 -121.4333 104° East 273 314 3,900 2,340 Climbing Northern Cal TRACON
03:53PM 38.6333 -121.3333 90° East 299 344 6,700 2,640 Climbing Northern Cal TRACON
03:54PM 38.6500 -121.2167 80° East 296 341 9,200 1,800 Climbing Northern Cal TRACON
03:56PM 38.5920 -120.7648 78° East  Level FlightAware Approximate
03:56PM 38.6567 -121.0672 87° East 325 374 11,300  Level Oakland Center
03:57PM 38.6678 -120.9275 84° East 384 442 12,200 1,380 Climbing Oakland Center
03:58PM 38.7297 -120.8039 57° Northeast 418 481 14,200 1,800 Climbing Oakland Center
03:59PM 38.8072 -120.6836 50° Northeast 433 498 15,900 1,560 Climbing Oakland Center
04:00PM 38.8856 -120.5611 51° Northeast 441 507 17,500 1,560 Climbing Oakland Center
04:01PM 38.9833 -120.4094 50° Northeast 456 525 19,100 1,440 Climbing Oakland Center
04:02PM 39.0667 -120.2775 51° Northeast 471 542 20,500 1,260 Climbing Oakland Center
04:03PM 39.1508 -120.1439 51° Northeast 480 552 21,800 1,140 Climbing Oakland Center
04:04PM 39.2358 -120.0175 49° Northeast 492 566 22,900 1,020 Climbing Oakland Center
04:05PM 39.3242 -119.8794 50° Northeast 498 573 24,000 900 Climbing Oakland Center
04:06PM 39.4128 -119.7375 51° Northeast 504 580 24,800 780 Climbing Oakland Center
04:07PM 39.5022 -119.5933 51° Northeast 511 588 25,600 840 Climbing Oakland Center
04:08PM 39.6111 -119.4175 51° Northeast 517 595 26,600 960 Climbing Oakland Center
04:09PM 39.7028 -119.2703 51° Northeast 519 597 27,600 1,020 Climbing Oakland Center
04:10PM 39.7922 -119.1236 52° Northeast 516 594 28,700 1,020 Climbing Oakland Center
04:11PM 39.8828 -118.9775 51° Northeast 515 593 29,700 840 Climbing Oakland Center
04:12PM 39.9714 -118.8317 52° Northeast 511 588 30,500 780 Climbing Oakland Center
04:13PM 40.0608 -118.6844 52° Northeast 513 590 31,400 780 Climbing Oakland Center
04:14PM 40.1347 -118.5300 58° Northeast 501 577 32,200 660 Climbing Oakland Center
04:15PM 40.1867 -118.3581 68° East 506 582 32,800 600 Climbing Oakland Center
04:16PM 40.2336 -118.1842 70° East 506 582 33,500 720 Climbing Oakland Center
04:17PM 40.2864 -117.9917 70° East 502 578 34,300 720 Climbing Oakland Center
04:18PM 40.3303 -117.8275 71° East 499 574 35,000 300 Climbing Oakland Center
04:19PM 40.3728 -117.6658 71° East 492 566 35,000  Level Oakland Center
04:20PM 40.4161 -117.5025 71° East 493 567 35,000  Level Salt Lake Center
04:21PM 40.4603 -117.3389 70° East 493 567 35,000  Level Salt Lake Center
04:22PM 40.5042 -117.1736 71° East 496 571 35,000  Level Salt Lake Center
04:23PM 40.5558 -116.9797 71° East 496 571 35,000  Level Salt Lake Center
04:24PM 40.6103 -116.8178 66° East 499 574 35,000  Level Salt Lake Center
04:25PM 40.6708 -116.6625 63° Northeast 495 570 35,000  Level Salt Lake Center
04:26PM 40.7417 -116.4808 63° Northeast 496 571 35,000  Level Salt Lake Center
04:27PM 40.8014 -116.3256 63° Northeast 497 572 35,000  Level Salt Lake Center
04:28PM 40.8719 -116.1436 63° Northeast 498 573 35,000  Level Salt Lake Center
04:29PM 40.9314 -115.9869 63° Northeast 497 572 35,000  Level Salt Lake Center
04:31PM 40.9981 -115.8031 64° Northeast 498 573 35,000  Level Salt Lake Center
04:32PM 41.0614 -115.6500 61° Northeast 496 571 35,000  Level Salt Lake Center
04:33PM 41.1194 -115.4914 64° Northeast 498 573 35,000  Level Salt Lake Center
04:34PM 41.1872 -115.3067 64° Northeast 498 573 35,000  Level Salt Lake Center
04:35PM 41.2456 -115.1492 64° Northeast 497 572 35,000  Level Salt Lake Center
04:36PM 41.3131 -114.9644 64° Northeast 497 572 35,000  Level Salt Lake Center
04:37PM 41.3675 -114.8208 63° Northeast 496 571 35,000  Level Salt Lake Center
04:38PM 41.4389 -114.6222 64° Northeast 496 571 35,000  Level Salt Lake Center
04:39PM 41.4944 -114.4556 66° East 495 570 35,000  Level Salt Lake Center
04:40PM 41.5361 -114.2814 72° East 495 570 35,000  Level Salt Lake Center
04:41PM 41.5789 -114.1081 72° East 493 567 35,000  Level Salt Lake Center
04:42PM 41.6217 -113.9364 72° East 490 564 35,000  Level Salt Lake Center
04:43PM 41.6633 -113.7631 72° East 491 565 35,000  Level Salt Lake Center
04:44PM 41.7053 -113.5886 72° East 492 566 35,000  Level Salt Lake Center
04:45PM 41.7544 -113.3803 72° East 489 563 35,000  Level Salt Lake Center
04:46PM 41.7956 -113.2067 72° East 489 563 35,000  Level Salt Lake Center
04:47PM 41.8369 -113.0333 72° East 490 564 35,000  Level Salt Lake Center
04:48PM 41.8772 -112.8597 73° East 487 560 35,000  Level Salt Lake Center
04:49PM 41.9169 -112.6856 73° East 488 562 35,000  Level Salt Lake Center
04:50PM 41.9569 -112.5117 73° East 487 560 35,000  Level Salt Lake Center
04:51PM 41.9972 -112.3358 73° East 490 564 35,000  Level Salt Lake Center
04:52PM 42.0450 -112.1258 73° East 491 565 35,000  Level Salt Lake Center
04:53PM 42.0831 -111.9506 74° East 489 563 35,000  Level Salt Lake Center
04:54PM 42.1228 -111.7758 73° East 488 562 35,000  Level Salt Lake Center
04:55PM 42.1608 -111.6006 74° East 488 562 35,000  Level Salt Lake Center
04:56PM 42.1994 -111.4261 73° East 487 560 35,000  Level Salt Lake Center
04:57PM 42.2372 -111.2536 73° East 483 556 35,000  Level Salt Lake Center
04:58PM 42.2747 -111.0797 74° East 482 555 35,000  Level Salt Lake Center
04:59PM 42.3172 -110.8797 74° East 485 558 35,000  Level Salt Lake Center
05:00PM 42.3528 -110.7122 74° East 485 558 35,000  Level Salt Lake Center
05:01PM 42.3939 -110.5164 74° East 485 558 35,000  Level Salt Lake Center
05:02PM 42.4281 -110.3494 74° East 482 555 35,000  Level Salt Lake Center
05:03PM 42.4692 -110.1517 74° East 486 559 35,000  Level Salt Lake Center
05:05PM 42.5042 -109.9831 74° East 486 559 35,000  Level Salt Lake Center
05:06PM 42.5383 -109.8144 75° East 484 557 35,000  Level Salt Lake Center
05:07PM 42.5781 -109.6172 75° East 485 558 35,000  Level Salt Lake Center
05:08PM 42.6119 -109.4475 75° East 486 559 35,000  Level Salt Lake Center
05:09PM 42.6500 -109.2489 75° East 485 558 35,000  Level Salt Lake Center
05:10PM 42.6844 -109.0786 75° East 487 560 35,000  Level Salt Lake Center
05:11PM 42.7231 -108.8789 75° East 488 562 35,000  Level Salt Lake Center
05:12PM 42.7556 -108.7061 76° East 491 565 35,000  Level Salt Lake Center
05:13PM 42.7883 -108.5344 75° East 490 564 35,000  Level Salt Lake Center
05:14PM 42.8250 -108.3342 76° East 489 563 35,000 360 Level Salt Lake Center
05:15PM 42.8561 -108.1617 76° East 490 564 35,800 780 Climbing Salt Lake Center
05:16PM 42.8917 -107.9672 76° East 475 547 36,600 540 Climbing Salt Lake Center
05:17PM 42.9222 -107.8011 76° East 472 543 37,000 180 Climbing Salt Lake Center
05:18PM 42.9481 -107.6114 79° East 473 544 37,000  Level Salt Lake Center
05:19PM 42.9597 -107.4372 85° East 481 554 37,000  Level Salt Lake Center
05:20PM 42.9736 -107.2322 85° East 487 560 37,000  Level Salt Lake Center
05:21PM 42.9853 -107.0561 85° East 489 563 37,000  Level Salt Lake Center
05:22PM 42.9978 -106.8667 85° East 486 559 37,000  Level Salt Lake Center
05:23PM 42.9725 -106.6628 100° East 490 564 37,000  Level Salt Lake Center
05:24PM 42.9497 -106.4872 100° East 490 564 37,000  Level Salt Lake Center
05:25PM 42.9208 -106.2881 101° East 481 554 37,000  Level Salt Lake Center
05:26PM 42.8986 -106.1161 100° East 481 554 37,000  Level Salt Lake Center
05:27PM 42.8758 -105.9442 100° East 482 555 37,000  Level Salt Lake Center
05:28PM 42.8461 -105.7128 100° East 484 557 37,000  Level Denver Center
05:29PM 42.8400 -105.5367 93° East 484 557 37,000  Level Denver Center
05:30PM 42.8519 -105.3339 85° East 480 552 37,000  Level Denver Center
05:31PM 42.8664 -105.1608 83° East 479 551 37,000  Level Denver Center
05:32PM 42.8986 -104.9961 75° East 468 539 37,000  Level Denver Center
05:34PM 42.9378 -104.8058 74° East 464 534 37,000  Level Denver Center
05:35PM 42.9719 -104.6403 74° East 466 536 37,000  Level Denver Center
05:36PM 43.0117 -104.4406 75° East 479 551 37,000  Level Denver Center
05:37PM 43.0461 -104.2689 75° East 484 557 37,000  Level Denver Center
05:38PM 43.0847 -104.0694 75° East 485 558 37,000  Level Denver Center
05:39PM 43.1192 -103.9003 74° East 483 556 37,000  Level Denver Center
05:40PM 43.1519 -103.7308 75° East 481 554 37,000  Level Denver Center
05:41PM 43.1903 -103.5306 75° East 486 559 37,000  Level Denver Center
05:42PM 43.2244 -103.3581 75° East 489 563 37,000  Level Denver Center
05:43PM 43.2606 -103.1553 76° East 490 564 37,000  Level Denver Center
05:44PM 43.2953 -102.9806 75° East 495 570 37,000  Level Denver Center
05:45PM 43.3325 -102.7758 76° East 495 570 37,000  Level Denver Center
05:46PM 43.3703 -102.5725 76° East 493 567 37,000  Level Denver Center
05:47PM 43.4069 -102.3661 76° East 498 573 37,000  Level Denver Center
05:48PM 43.4453 -102.1911 73° East 500 575 37,000  Level Denver Center
05:49PM 43.4983 -102.0089 68° East 497 572 37,000  Level Denver Center
05:50PM 43.5497 -101.8336 68° East 495 570 37,100  Climbing Denver Center
05:51PM 43.6008 -101.6611 68° East 489 563 37,000 -60 Descending Denver Center
05:52PM 43.6464 -101.4903 70° East 477 549 37,000  Level Denver Center
05:53PM 43.6628 -101.4214 72° East 480 552 37,000  Level Minneapolis Center
05:53PM 43.6881 -101.2778 76° East 479 551 37,000  Level Denver Center
05:54PM 43.7169 -101.0953 78° East 487 560 37,000  Level Denver Center
05:55PM 43.7439 -100.9081 79° East 496 571 37,000  Level Denver Center
05:56PM 43.7567 -100.8361 76° East 494 568 37,000  Level Minneapolis Center
05:57PM 43.7847 -100.6442 78° East 504 580 37,000  Level Minneapolis Center
05:57PM 43.8022 -100.5281 78° East 508 585 37,000  Level Denver Center
05:58PM 43.8133 -100.4525 78° East 509 586 37,000  Level Minneapolis Center
05:59PM 43.8422 -100.2600 78° East 512 589 37,000  Level Minneapolis Center
06:00PM 43.8689 -100.0700 79° East 509 586 37,000  Level Minneapolis Center
06:01PM 43.8967 -99.8794 79° East 508 585 37,000  Level Minneapolis Center
06:02PM 43.9231 -99.6897 79° East 506 582 37,000  Level Minneapolis Center
06:03PM 43.9550 -99.4600 79° East 508 585 37,000  Level Minneapolis Center
06:04PM 43.9808 -99.2667 79° East 511 588 37,000  Level Minneapolis Center
06:05PM 44.0069 -99.0739 79° East 512 589 37,000  Level Minneapolis Center
06:06PM 44.0281 -98.9181 79° East 514 592 37,000  Level Minneapolis Center
06:07PM 44.0606 -98.6767 79° East 516 594 37,000  Level Minneapolis Center
06:08PM 44.0858 -98.4811 80° East 517 595 37,000  Level Minneapolis Center
06:09PM 44.1158 -98.2492 80° East 511 588 37,000  Level Minneapolis Center
06:10PM 44.1408 -98.0544 80° East 512 589 37,000  Level Minneapolis Center
06:11PM 44.1661 -97.8592 80° East 514 592 37,000  Level Minneapolis Center
06:12PM 44.1883 -97.6642 81° East 513 590 37,000  Level Minneapolis Center
06:13PM 44.2117 -97.4675 81° East 514 592 37,000  Level Minneapolis Center
06:14PM 44.2356 -97.2711 80° East 515 593 37,000  Level Minneapolis Center
06:15PM 44.2578 -97.0744 81° East 516 594 37,000  Level Minneapolis Center
06:16PM 44.2853 -96.8381 81° East 516 594 37,000  Level Minneapolis Center
06:17PM 44.3086 -96.6414 81° East 514 592 37,000  Level Minneapolis Center
06:19PM 44.3184 -96.4329 86° East  Level FlightAware Approximate
06:19PM 44.3539 -96.2400 86° East 516 594 37,000  Level Minneapolis Center
06:20PM 44.3756 -96.0369 81° East 518 596 36,100 -960 Descending Minneapolis Center
06:21PM 44.3958 -95.8386 82° East 514 592 35,100 -1,020 Descending Minneapolis Center
06:23PM 44.4169 -95.6417 81° East 512 589 34,100 -1,020 Descending Minneapolis Center
06:24PM 44.4361 -95.4436 82° East 514 592 33,100 -1,740 Descending Minneapolis Center
06:25PM 44.4553 -95.2417 82° East 521 600 30,600 -3,300 Descending Minneapolis Center
06:26PM 44.4936 -95.0106 77° East 513 590 26,300 -3,780 Descending Minneapolis Center
06:27PM 44.5394 -94.8278 71° East 504 580 22,900 -3,060 Descending Minneapolis Center
06:28PM 44.5811 -94.6514 72° East 487 560 20,000 -2,880 Descending Minneapolis Center
06:29PM 44.6192 -94.4803 73° East 459 528 17,000 -2,880 Descending Minneapolis Center
06:30PM 44.6564 -94.3178 72° East 441 507 14,100 -2,820 Descending Minneapolis Center
06:31PM 44.6925 -94.1592 72° East 428 493 11,300 -1,560 Descending Minneapolis Center
06:32PM 44.7275 -94.0044 72° East 419 482 11,000 -180 Descending Minneapolis Center
06:33PM 44.7683 -93.8192 73° East 412 474 11,000  Level Minneapolis Center
06:34PM 44.8006 -93.6747 73° East 383 441 11,000  Level Minneapolis Center
06:35PM 44.8278 -93.5514 73° East 319 367 11,000 -480 Level Minneapolis Center
06:36PM 44.8506 -93.4472 73° East 278 320 10,100 -1,140 Descending Minneapolis Center
06:37PM 44.8561 -93.3456 86° East 272 313 8,700 -1,020 Descending Minneapolis Center
06:38PM 44.7900 -93.3117 160° South 259 298 8,000 -360 Descending Minneapolis Center
06:39PM 44.7058 -93.3108 180° South 264 304 8,000 -120 Level Minneapolis Center
06:40PM 44.6344 -93.3069 178° South 262 302 7,800 -840 Descending Minneapolis Center
06:41PM 44.5853 -93.2519 141° Southeast 266 306 6,300 -1,080 Descending Minneapolis Center
06:42PM 44.6286 -93.1956 43° Northeast 227 261 5,600 -1,080 Descending Minneapolis Center
06:43PM 44.6917 -93.1911 North 198 228 4,100 -1,260 Descending Minneapolis Center
06:44PM 44.7439 -93.2050 349° North 195 224 3,100 -1,020 Descending Minneapolis Center